Saint-Pacome, Canada
Current Conditions -  °F | °C
As of 6:53 PM on Sunday 23 Nov 2014 (Local Time) from KFVE Reporting Station
Overcast Overcast  
Wind Chill: -2°   Ceiling: 4100
Heat Index:   Visibility: 10mi
Dew Point: -1°   Wind: 6mph
Humidity: 85%   Direction: 200°SSW
Pressure: 30.03"   Gusts: NA
Location:  47.42°N, 69.95°W
Report Text: KFVE 232353Z AUTO 20005KT 10SM OVC041 01/M01 A3003 RMK AO2 SLP177 T00111011 10028 20011 51004
Loading
Personal Weather Stations






























Interactive Weather Map New forecast layout! Learn more

10-Day Weather Forecast

Advertisements
Track Severe Weather on mobile